Etusivu
METAR-TAF:

METAR-TAF

Lentoasemat :

Ørland, Norja

Leveyspiiri: 63-42N, Pituuspiiri: 009-36E, korkeus merenpinnasta: 0 m

Tämänhetkinen sää

Tämä raportti tehtiin 23 minuuttia sitten, kello 06.20 UTC
Tuuli 9 kn luoteesta
Lämpötila 11°C
Kosteus 76%
Ilmanpaine 1012 hPa
Näkyvyys 10 km tai enemmän
Muutamia pilviä 1500 ft:n korkeudessa, Kasvava cumulus-pilvi.
Hajonneita pilviä 5000 ft:n korkeudessa

METAR: ENOL 240620Z 31009KT 9999 FEW015TCU BKN050 11/07 Q1012 NOSIG

Aika: 08:43 (06:43 UTC)

Sääennuste

Ennuste voimassa 24. päivästä klo 06 UTC - 25. päivään klo 06 UTC
Tuuli 8 kn luoteesta
Näkyvyys 10 km tai enemmän
Muutamia pilviä 1500 ft:n korkeudessa
Hajanaisia pilviä 3000 ft:n korkeudessa

TAF: ENOL 2406/2506 32008KT 9999 FEW015 SCT030

Säähavainnot ja -ennusteet yli 4000 lentoasemalta (METAR- ja TAF-raportit).

Käytössä olevat sääasemat on merkitty karttaan keltaisilla ja punaisilla pisteillä.

Aseta hiiri pisteen päälle nähdäksesi sääaseman nimen.

Klikkaa sitten nähdäksesi säähavainnot ja -ennusteet.

Kartan vaihtaminen: klikkaa mustalla rastilla varustettuja vihreitä pisteitä, niin voit zoomata sisään; viivalla varustettua vihreää pistettä, niin voit zoomata ulos tai vihreitä nuolia, niin pääset viereisille kartoille.


METAR-TAF: